createdAt,value
2017-05-19T05:17:36.141Z,1003.59
2017-05-19T05:18:38.358Z,1003.62
2017-05-19T05:19:40.226Z,1003.59
2017-05-19T05:20:42.342Z,1003.64
2017-05-19T05:21:44.944Z,1003.67
2017-05-19T05:22:47.501Z,1003.67
2017-05-19T05:23:49.781Z,1003.66
2017-05-19T05:24:51.594Z,1003.62
2017-05-19T05:25:53.595Z,1003.63
2017-05-19T05:26:55.849Z,1003.62
2017-05-19T05:27:57.659Z,1003.66
2017-05-19T05:28:59.816Z,1003.64
2017-05-19T05:30:02.045Z,1003.68
2017-05-19T05:31:03.944Z,1003.70
2017-05-19T05:32:05.799Z,1003.72
2017-05-19T05:33:07.815Z,1003.76
2017-05-19T05:34:09.618Z,1003.76
2017-05-19T05:35:12.351Z,1003.79
2017-05-19T05:36:14.533Z,1003.85
2017-05-19T05:37:16.316Z,1003.86
2017-05-19T05:38:21.696Z,1003.86
2017-05-19T05:39:23.546Z,1003.89
2017-05-19T05:40:25.401Z,1003.91
2017-05-19T05:41:27.453Z,1003.94
2017-05-19T05:42:29.375Z,1003.97
2017-05-19T05:43:31.786Z,1004.00
2017-05-19T05:44:34.059Z,1003.99
2017-05-19T05:45:36.409Z,1003.99
2017-05-19T05:46:38.298Z,1004.02
2017-05-19T05:47:40.319Z,1004.03
2017-05-19T05:48:42.284Z,1004.03
2017-05-19T05:49:44.135Z,1004.09
2017-05-19T05:50:46.441Z,1004.09
2017-05-19T05:51:48.249Z,1004.07
2017-05-19T05:52:50.869Z,1004.09
2017-05-19T05:53:52.666Z,1004.16
2017-05-19T05:54:54.939Z,1004.17
2017-05-19T05:55:57.191Z,1004.22
2017-05-19T05:56:59.009Z,1004.22
2017-05-19T05:58:00.868Z,1004.22
2017-05-19T05:59:03.360Z,1004.26
2017-05-19T06:00:05.263Z,1004.27
2017-05-19T06:01:07.137Z,1004.32
2017-05-19T06:02:09.354Z,1004.32
2017-05-19T06:03:11.216Z,1004.36
2017-05-19T06:04:13.600Z,1004.36
2017-05-19T06:05:15.548Z,1004.36
2017-05-19T06:06:17.929Z,1004.37
2017-05-19T06:07:20.354Z,1004.38
2017-05-19T06:08:21.912Z,1004.41
2017-05-19T06:09:24.158Z,1004.44
2017-05-19T06:10:26.495Z,1004.41
2017-05-19T06:11:28.353Z,1004.48
2017-05-19T06:12:30.148Z,1004.46
2017-05-19T06:13:32.223Z,1004.43
2017-05-19T06:14:34.003Z,1004.49
2017-05-19T06:15:35.715Z,1004.51
2017-05-19T06:16:37.620Z,1004.52
2017-05-19T06:17:40.068Z,1004.56
2017-05-19T06:18:41.908Z,1004.61
2017-05-19T06:19:43.747Z,1004.58
2017-05-19T06:20:45.945Z,1004.64
2017-05-19T06:21:47.766Z,1004.65
2017-05-19T06:22:49.542Z,1004.65
2017-05-19T06:23:51.706Z,1004.64
2017-05-19T06:24:55.778Z,1004.63
2017-05-19T06:25:57.934Z,1004.68
2017-05-19T06:26:59.968Z,1004.62
2017-05-19T06:28:02.026Z,1004.60
2017-05-19T06:29:03.785Z,1004.65
2017-05-19T06:30:05.627Z,1004.62
2017-05-19T06:31:07.425Z,1004.65
2017-05-19T06:32:09.242Z,1004.66
2017-05-19T06:33:11.104Z,1004.65
2017-05-19T06:34:12.898Z,1004.67
2017-05-19T06:35:14.878Z,1004.68
2017-05-19T06:36:16.695Z,1004.70
2017-05-19T06:37:18.600Z,1004.68
2017-05-19T06:38:20.429Z,1004.66
2017-05-19T06:39:22.270Z,1004.69
2017-05-19T06:40:24.106Z,1004.66
2017-05-19T06:41:25.849Z,1004.65
2017-05-19T06:42:27.569Z,1004.70
2017-05-19T06:43:29.337Z,1004.76
2017-05-19T06:44:31.234Z,1004.78
2017-05-19T06:45:33.070Z,1004.79
2017-05-19T06:46:34.857Z,1004.81
2017-05-19T06:47:36.618Z,1004.86
2017-05-19T06:48:38.367Z,1004.91
2017-05-19T06:49:40.171Z,1004.88
2017-05-19T06:50:41.948Z,1004.91
2017-05-19T06:51:43.752Z,1004.90
2017-05-19T06:52:45.603Z,1004.99
2017-05-19T06:53:47.493Z,1004.99
2017-05-19T06:54:49.400Z,1004.98
2017-05-19T06:55:51.160Z,1004.99
2017-05-19T06:56:53.240Z,1005.07
2017-05-19T06:57:55.116Z,1005.15
2017-05-19T06:58:57.166Z,1005.11
2017-05-19T06:59:58.962Z,1005.15
2017-05-19T07:01:00.698Z,1005.15
2017-05-19T07:02:02.498Z,1005.16
2017-05-19T07:03:04.483Z,1005.12
2017-05-19T07:04:06.306Z,1005.10
2017-05-19T07:05:08.287Z,1005.18
2017-05-19T07:06:10.047Z,1005.20
2017-05-19T07:07:11.868Z,1005.19
2017-05-19T07:08:13.711Z,1005.24
2017-05-19T07:09:15.767Z,1005.27
2017-05-19T07:10:17.872Z,1005.29
2017-05-19T07:11:19.844Z,1005.33
2017-05-19T07:12:21.970Z,1005.37
2017-05-19T07:13:23.923Z,1005.42
2017-05-19T07:14:25.718Z,1005.41
2017-05-19T07:15:27.511Z,1005.41
2017-05-19T07:16:29.374Z,1005.43
2017-05-19T07:17:31.192Z,1005.43
2017-05-19T07:18:32.987Z,1005.38
2017-05-19T07:19:35.102Z,1005.39
2017-05-19T07:20:36.964Z,1005.39
2017-05-19T07:21:38.996Z,1005.40
2017-05-19T07:22:41.012Z,1005.41
2017-05-19T07:23:42.905Z,1005.44
2017-05-19T07:24:44.799Z,1005.45
2017-05-19T07:25:46.591Z,1005.45
2017-05-19T07:26:48.369Z,1005.50
2017-05-19T07:27:50.248Z,1005.50
2017-05-19T07:28:52.209Z,1005.56
2017-05-19T07:29:54.010Z,1005.49
2017-05-19T07:30:55.861Z,1005.53
2017-05-19T07:31:57.621Z,1005.54
2017-05-19T07:32:59.644Z,1005.52
2017-05-19T07:34:01.375Z,1005.54
2017-05-19T07:35:03.497Z,1005.52
2017-05-19T07:36:05.304Z,1005.49
2017-05-19T07:37:07.112Z,1005.50
2017-05-19T07:38:09.047Z,1005.53
2017-05-19T07:39:10.944Z,1005.57
2017-05-19T07:40:12.959Z,1005.53
2017-05-19T07:41:14.820Z,1005.55
2017-05-19T07:42:16.668Z,1005.57
2017-05-19T07:43:18.827Z,1005.57
2017-05-19T07:44:20.673Z,1005.57
2017-05-19T07:45:22.564Z,1005.58
2017-05-19T07:46:24.362Z,1005.59
2017-05-19T07:47:26.102Z,1005.61
2017-05-19T07:48:28.021Z,1005.58
2017-05-19T07:49:29.920Z,1005.57
2017-05-19T07:50:31.861Z,1005.58
2017-05-19T07:51:33.772Z,1005.63
2017-05-19T07:52:35.745Z,1005.61
2017-05-19T07:53:37.544Z,1005.64
2017-05-19T07:54:39.446Z,1005.64
2017-05-19T07:55:41.217Z,1005.59
2017-05-19T07:56:43.295Z,1005.61
2017-05-19T07:57:45.158Z,1005.63
2017-05-19T07:58:47.152Z,1005.65
2017-05-19T07:59:49.102Z,1005.61
2017-05-19T08:00:50.965Z,1005.63
2017-05-19T08:01:52.856Z,1005.64
2017-05-19T08:02:54.753Z,1005.66
2017-05-19T08:03:56.633Z,1005.65
2017-05-19T08:04:58.576Z,1005.68
2017-05-19T08:06:01.580Z,1005.66
2017-05-19T08:07:03.314Z,1005.65
2017-05-19T08:08:05.210Z,1005.72
2017-05-19T08:09:07.136Z,1005.64
2017-05-19T08:10:09.029Z,1005.70
2017-05-19T08:11:10.862Z,1005.72
2017-05-19T08:12:12.816Z,1005.74
2017-05-19T08:13:14.795Z,1005.75
2017-05-19T08:14:16.502Z,1005.78
2017-05-19T08:15:18.329Z,1005.76
2017-05-19T08:16:20.370Z,1005.80
2017-05-19T08:17:22.299Z,1005.80
2017-05-19T08:18:24.102Z,1005.84
2017-05-19T08:19:25.904Z,1005.86
2017-05-19T08:20:27.760Z,1005.91
2017-05-19T08:21:29.644Z,1005.86
2017-05-19T08:22:31.463Z,1005.89
2017-05-19T08:23:33.412Z,1005.88
2017-05-19T08:24:35.352Z,1005.88
2017-05-19T08:25:37.297Z,1005.91
2017-05-19T08:26:39.190Z,1005.98
2017-05-19T08:27:41.079Z,1005.98
2017-05-19T08:28:43.126Z,1005.99
2017-05-19T08:29:45.069Z,1006.01
2017-05-19T08:30:47.115Z,1006.04
2017-05-19T08:31:49.417Z,1006.04
2017-05-19T08:32:51.527Z,1006.01
2017-05-19T08:33:53.481Z,1005.99
2017-05-19T08:34:55.338Z,1006.02
2017-05-19T08:35:57.181Z,1006.05
2017-05-19T08:36:58.974Z,1006.00
2017-05-19T08:38:00.803Z,1006.05
2017-05-19T08:39:02.657Z,1006.05
2017-05-19T08:40:04.487Z,1006.06
2017-05-19T08:41:06.257Z,1006.08
2017-05-19T08:42:08.137Z,1006.07
2017-05-19T08:43:09.925Z,1006.06
2017-05-19T08:44:11.944Z,1006.12
2017-05-19T08:45:14.114Z,1006.11
2017-05-19T08:46:16.104Z,1006.08
2017-05-19T08:47:18.090Z,1006.15
2017-05-19T08:48:20.175Z,1006.14
2017-05-19T08:49:22.267Z,1006.13
2017-05-19T08:50:24.109Z,1006.14
2017-05-19T08:51:25.934Z,1006.14
2017-05-19T08:52:27.857Z,1006.14
2017-05-19T08:53:29.618Z,1006.20
2017-05-19T08:54:31.687Z,1006.24
2017-05-19T08:55:33.586Z,1006.23
2017-05-19T08:56:35.427Z,1006.19
2017-05-19T08:57:37.262Z,1006.22
2017-05-19T08:58:39.225Z,1006.14
2017-05-19T08:59:40.994Z,1006.15
2017-05-19T09:00:43.154Z,1006.21
2017-05-19T09:01:45.117Z,1006.16
2017-05-19T09:02:47.344Z,1006.16
2017-05-19T09:03:49.198Z,1006.19
2017-05-19T09:04:51.117Z,1006.18
2017-05-19T09:05:52.943Z,1006.20
2017-05-19T09:06:54.767Z,1006.20
2017-05-19T09:07:56.529Z,1006.19
2017-05-19T09:08:58.807Z,1006.21
2017-05-19T09:10:00.631Z,1006.21
2017-05-19T09:11:02.419Z,1006.21
2017-05-19T09:12:04.157Z,1006.21
2017-05-19T09:13:05.965Z,1006.21
2017-05-19T09:14:07.987Z,1006.20
2017-05-19T09:15:09.934Z,1006.20
2017-05-19T09:16:11.705Z,1006.20
2017-05-19T09:17:13.539Z,1006.21
2017-05-19T09:18:15.457Z,1006.23
2017-05-19T09:19:17.300Z,1006.25
2017-05-19T09:20:19.158Z,1006.25
2017-05-19T09:21:20.947Z,1006.30
2017-05-19T09:22:22.733Z,1006.27
2017-05-19T09:23:24.809Z,1006.28
2017-05-19T09:24:26.671Z,1006.30
2017-05-19T09:25:28.521Z,1006.35
2017-05-19T09:26:30.504Z,1006.32
2017-05-19T09:27:32.318Z,1006.29
2017-05-19T09:28:34.058Z,1006.29
2017-05-19T09:29:35.853Z,1006.30
2017-05-19T09:30:37.748Z,1006.28
2017-05-19T09:31:39.849Z,1006.28
2017-05-19T09:32:41.653Z,1006.29
2017-05-19T09:33:43.529Z,1006.30
2017-05-19T09:34:45.758Z,1006.28
2017-05-19T09:35:47.524Z,1006.30
2017-05-19T09:36:49.272Z,1006.28
2017-05-19T09:37:51.182Z,1006.31
2017-05-19T09:38:52.978Z,1006.25
2017-05-19T09:39:54.861Z,1006.27
2017-05-19T09:40:56.611Z,1006.26
2017-05-19T09:41:58.586Z,1006.25
2017-05-19T09:43:00.269Z,1006.23
2017-05-19T09:44:02.140Z,1006.25
2017-05-19T09:45:03.986Z,1006.22
2017-05-19T09:46:05.901Z,1006.21
2017-05-19T09:47:07.944Z,1006.19
2017-05-19T09:48:09.799Z,1006.19
2017-05-19T09:49:11.658Z,1006.23
2017-05-19T09:50:13.507Z,1006.19
2017-05-19T09:51:15.480Z,1006.21
2017-05-19T09:52:17.438Z,1006.22
2017-05-19T09:53:19.327Z,1006.19
2017-05-19T09:54:21.140Z,1006.21
2017-05-19T09:55:22.980Z,1006.21
2017-05-19T09:56:24.786Z,1006.23
2017-05-19T09:57:26.550Z,1006.20
2017-05-19T09:58:28.406Z,1006.19
2017-05-19T09:59:30.333Z,1006.21
2017-05-19T10:00:32.406Z,1006.25
2017-05-19T10:01:34.144Z,1006.24
2017-05-19T10:02:36.225Z,1006.24
2017-05-19T10:03:38.039Z,1006.26
2017-05-19T10:04:39.828Z,1006.24
2017-05-19T10:05:41.912Z,1006.24
2017-05-19T10:06:43.833Z,1006.25
2017-05-19T10:07:45.705Z,1006.24
2017-05-19T10:08:47.433Z,1006.21
2017-05-19T10:09:49.308Z,1006.22
2017-05-19T10:10:51.147Z,1006.18
2017-05-19T10:11:53.072Z,1006.15
2017-05-19T10:12:54.850Z,1006.13
2017-05-19T10:13:56.583Z,1006.15
2017-05-19T10:14:58.740Z,1006.10
2017-05-19T10:16:00.912Z,1006.13
2017-05-19T10:17:02.865Z,1006.14
2017-05-19T10:18:05.029Z,1006.12
2017-05-19T10:19:06.825Z,1006.09
2017-05-19T10:20:08.970Z,1006.12
2017-05-19T10:21:11.015Z,1006.09
2017-05-19T10:22:12.841Z,1006.13
2017-05-19T10:23:14.622Z,1006.08
2017-05-19T10:24:16.717Z,1006.08
2017-05-19T10:25:18.628Z,1006.06
2017-05-19T10:26:20.577Z,1006.05
2017-05-19T10:27:22.670Z,1006.01
2017-05-19T10:28:24.433Z,1006.02
2017-05-19T10:29:26.294Z,1005.98
2017-05-19T10:30:28.137Z,1005.97
2017-05-19T10:31:29.916Z,1005.94
2017-05-19T10:32:31.958Z,1005.92
2017-05-19T10:33:33.748Z,1005.91
2017-05-19T10:34:35.610Z,1005.89
2017-05-19T10:35:37.498Z,1005.86
2017-05-19T10:36:39.654Z,1005.87
2017-05-19T10:37:41.471Z,1005.84
2017-05-19T10:38:43.318Z,1005.86
2017-05-19T10:39:45.146Z,1005.80
2017-05-19T10:40:46.971Z,1005.79
2017-05-19T10:41:48.842Z,1005.83
2017-05-19T10:42:50.911Z,1005.81
2017-05-19T10:43:52.622Z,1005.88
2017-05-19T10:44:54.506Z,1005.87
2017-05-19T10:45:56.406Z,1005.89
2017-05-19T10:46:58.427Z,1005.90
2017-05-19T10:48:00.526Z,1005.91
2017-05-19T10:49:02.446Z,1005.96
2017-05-19T10:50:04.186Z,1005.98
2017-05-19T10:51:06.275Z,1005.96
2017-05-19T10:52:07.968Z,1006.03
2017-05-19T10:53:09.869Z,1006.01
2017-05-19T10:54:11.762Z,1006.01
2017-05-19T10:55:13.548Z,1006.03
2017-05-19T10:56:15.361Z,1006.03
2017-05-19T10:57:17.253Z,1006.07
2017-05-19T10:58:19.067Z,1006.09
2017-05-19T10:59:21.359Z,1006.10
2017-05-19T11:00:23.236Z,1006.08
2017-05-19T11:01:25.144Z,1006.10
2017-05-19T11:02:27.005Z,1006.11
2017-05-19T11:03:28.871Z,1006.11
2017-05-19T11:04:30.710Z,1006.10
2017-05-19T11:05:32.546Z,1006.09
2017-05-19T11:06:34.382Z,1006.13
2017-05-19T11:07:36.494Z,1006.07
2017-05-19T11:08:38.753Z,1006.01
2017-05-19T11:09:40.758Z,1006.08
2017-05-19T11:10:42.577Z,1006.09
2017-05-19T11:11:44.538Z,1006.05
2017-05-19T11:12:46.429Z,1006.02
2017-05-19T11:13:48.169Z,1006.00
2017-05-19T11:14:50.410Z,1005.99
2017-05-19T11:15:52.520Z,1005.99
2017-05-19T11:16:54.320Z,1005.97
2017-05-19T11:17:56.176Z,1005.96
2017-05-19T11:18:58.014Z,1005.89
2017-05-19T11:19:59.737Z,1005.88
2017-05-19T11:21:01.822Z,1005.86
2017-05-19T11:22:03.675Z,1005.89
2017-05-19T11:23:05.437Z,1005.84
2017-05-19T11:24:07.519Z,1005.90
2017-05-19T11:25:09.291Z,1005.87
2017-05-19T11:26:11.471Z,1005.86
2017-05-19T11:27:13.250Z,1005.88
2017-05-19T11:28:15.073Z,1005.87
2017-05-19T11:29:16.927Z,1005.86
2017-05-19T11:30:19.110Z,1005.86
2017-05-19T11:31:20.879Z,1005.86
2017-05-19T11:32:22.749Z,1005.88
2017-05-19T11:33:24.861Z,1005.89
2017-05-19T11:34:26.667Z,1005.89
2017-05-19T11:35:28.536Z,1005.93
2017-05-19T11:36:30.438Z,1005.89
2017-05-19T11:37:32.492Z,1005.95
2017-05-19T11:38:34.296Z,1005.94
2017-05-19T11:39:36.103Z,1005.99
2017-05-19T11:40:38.214Z,1006.00
2017-05-19T11:41:39.954Z,1006.01
2017-05-19T11:42:42.052Z,1006.03
2017-05-19T11:43:43.911Z,1006.02
2017-05-19T11:44:45.857Z,1006.04
2017-05-19T11:45:47.629Z,1006.01
2017-05-19T11:46:49.394Z,1006.03
2017-05-19T11:47:51.210Z,1006.02
2017-05-19T11:48:53.049Z,1006.04
2017-05-19T11:49:55.030Z,1006.06
2017-05-19T11:50:56.746Z,1006.08
2017-05-19T11:51:58.679Z,1006.09
2017-05-19T11:53:00.706Z,1006.12
2017-05-19T11:54:02.580Z,1006.11
2017-05-19T11:55:04.667Z,1006.14
2017-05-19T11:56:06.492Z,1006.13
2017-05-19T11:57:08.336Z,1006.18
2017-05-19T11:58:10.151Z,1006.18
2017-05-19T11:59:11.973Z,1006.16
2017-05-19T12:00:13.884Z,1006.16
2017-05-19T12:01:15.631Z,1006.22
2017-05-19T12:02:17.412Z,1006.19
2017-05-19T12:03:19.602Z,1006.16
2017-05-19T12:04:21.437Z,1006.16
2017-05-19T12:05:23.285Z,1006.15
2017-05-19T12:06:25.376Z,1006.16
2017-05-19T12:07:27.620Z,1006.12
2017-05-19T12:08:29.343Z,1006.13
2017-05-19T12:09:32.054Z,1006.15
2017-05-19T12:10:34.230Z,1006.12
2017-05-19T12:11:36.112Z,1006.18
2017-05-19T12:12:37.967Z,1006.18
2017-05-19T12:13:39.825Z,1006.19
2017-05-19T12:14:42.059Z,1006.18
2017-05-19T12:15:43.873Z,1006.24
2017-05-19T12:16:45.690Z,1006.25
2017-05-19T12:17:47.676Z,1006.27
2017-05-19T12:18:49.476Z,1006.28
2017-05-19T12:19:51.306Z,1006.34
2017-05-19T12:20:53.321Z,1006.37
2017-05-19T12:21:55.063Z,1006.40
2017-05-19T12:22:57.370Z,1006.45
2017-05-19T12:23:59.336Z,1006.47
2017-05-19T12:25:01.283Z,1006.46
2017-05-19T12:26:03.107Z,1006.40
2017-05-19T12:27:04.912Z,1006.44
2017-05-19T12:28:06.721Z,1006.43
2017-05-19T12:29:08.806Z,1006.44
2017-05-19T12:30:11.036Z,1006.47
2017-05-19T12:31:12.834Z,1006.47
2017-05-19T12:32:14.708Z,1006.48
2017-05-19T12:33:16.535Z,1006.55
2017-05-19T12:34:18.516Z,1006.54
2017-05-19T12:35:20.334Z,1006.50
2017-05-19T12:36:22.135Z,1006.47
2017-05-19T12:37:24.007Z,1006.49
2017-05-19T12:38:25.714Z,1006.51
2017-05-19T12:39:27.521Z,1006.52
2017-05-19T12:40:29.492Z,1006.51
2017-05-19T12:41:31.644Z,1006.48
2017-05-19T12:42:33.731Z,1006.47
2017-05-19T12:43:35.541Z,1006.46
2017-05-19T12:44:37.658Z,1006.47
2017-05-19T12:45:39.532Z,1006.50
2017-05-19T12:46:41.347Z,1006.48
2017-05-19T12:47:43.647Z,1006.48
2017-05-19T12:48:45.975Z,1006.46
2017-05-19T12:49:47.744Z,1006.46
2017-05-19T12:50:49.938Z,1006.49
2017-05-19T12:51:51.651Z,1006.45
2017-05-19T12:52:53.503Z,1006.52
2017-05-19T12:53:55.375Z,1006.54
2017-05-19T12:54:57.180Z,1006.54
2017-05-19T12:55:58.981Z,1006.55
2017-05-19T12:57:01.287Z,1006.59
2017-05-19T12:58:03.390Z,1006.61
2017-05-19T12:59:05.230Z,1006.64
2017-05-19T13:00:07.470Z,1006.67
2017-05-19T13:01:09.321Z,1006.66
2017-05-19T13:02:11.682Z,1006.72
2017-05-19T13:03:13.415Z,1006.72
2017-05-19T13:04:15.736Z,1006.79
2017-05-19T13:05:17.563Z,1006.82
2017-05-19T13:06:19.627Z,1006.85
2017-05-19T13:07:21.679Z,1006.88
2017-05-19T13:08:23.460Z,1006.99
2017-05-19T13:09:25.329Z,1006.99
2017-05-19T13:10:27.421Z,1007.01
2017-05-19T13:11:29.220Z,1007.00
2017-05-19T13:12:30.977Z,1007.03
2017-05-19T13:13:32.776Z,1007.02
2017-05-19T13:14:34.683Z,1007.06
2017-05-19T13:15:36.797Z,1006.97
2017-05-19T13:16:38.582Z,1006.97
2017-05-19T13:17:40.488Z,1006.93
2017-05-19T13:18:42.375Z,1006.98
2017-05-19T13:19:44.159Z,1006.99
2017-05-19T13:20:46.386Z,1007.04
2017-05-19T13:21:48.148Z,1007.07
2017-05-19T13:22:49.979Z,1007.10
2017-05-19T13:23:51.879Z,1007.11
2017-05-19T13:24:53.681Z,1007.13
2017-05-19T13:25:55.455Z,1007.08
2017-05-19T13:26:57.261Z,1007.11
2017-05-19T13:27:59.101Z,1007.14
2017-05-19T13:29:01.059Z,1007.12
2017-05-19T13:30:02.853Z,1007.14
2017-05-19T13:31:04.927Z,1007.14
2017-05-19T13:32:07.087Z,1007.17
2017-05-19T13:33:08.905Z,1007.17
2017-05-19T13:34:10.725Z,1007.19
2017-05-19T13:35:12.555Z,1007.21
2017-05-19T13:36:14.424Z,1007.21
2017-05-19T13:37:16.220Z,1007.17
2017-05-19T13:38:18.128Z,1007.17
2017-05-19T13:39:19.868Z,1007.10
2017-05-19T13:40:21.725Z,1007.14
2017-05-19T13:41:23.639Z,1007.13
2017-05-19T13:42:25.499Z,1007.15
2017-05-19T13:43:27.493Z,1007.19
2017-05-19T13:44:29.776Z,1007.19
2017-05-19T13:45:31.658Z,1007.20
2017-05-19T13:46:33.423Z,1007.22
2017-05-19T13:47:35.671Z,1007.23
2017-05-19T13:48:37.462Z,1007.26
2017-05-19T13:49:39.292Z,1007.27
2017-05-19T13:50:41.483Z,1007.28
2017-05-19T13:51:43.774Z,1007.33
2017-05-19T13:52:45.497Z,1007.26
2017-05-19T13:53:47.343Z,1007.28
2017-05-19T13:54:49.175Z,1007.25
2017-05-19T13:55:50.957Z,1007.23
2017-05-19T13:56:52.747Z,1007.25
2017-05-19T13:57:54.607Z,1007.24
2017-05-19T13:58:56.448Z,1007.25
2017-05-19T13:59:58.692Z,1007.27
2017-05-19T14:01:00.528Z,1007.26
2017-05-19T14:02:02.324Z,1007.26
2017-05-19T14:03:04.160Z,1007.28
2017-05-19T14:04:05.994Z,1007.27
2017-05-19T14:05:07.859Z,1007.31
2017-05-19T14:06:09.834Z,1007.29
2017-05-19T14:07:11.625Z,1007.32
2017-05-19T14:08:13.506Z,1007.31
2017-05-19T14:09:15.620Z,1007.34
2017-05-19T14:10:17.569Z,1007.32
2017-05-19T14:11:19.376Z,1007.33
2017-05-19T14:12:21.251Z,1007.37
2017-05-19T14:13:23.077Z,1007.38
2017-05-19T14:14:24.910Z,1007.40
2017-05-19T14:15:26.708Z,1007.43
2017-05-19T14:16:28.594Z,1007.45
2017-05-19T14:17:30.446Z,1007.40
2017-05-19T14:18:32.236Z,1007.42
2017-05-19T14:19:34.080Z,1007.44
2017-05-19T14:20:36.264Z,1007.46
2017-05-19T14:21:38.161Z,1007.46
2017-05-19T14:22:39.815Z,1007.43
2017-05-19T14:23:41.895Z,1007.44
2017-05-19T14:24:43.966Z,1007.41
2017-05-19T14:25:45.739Z,1007.41
2017-05-19T14:26:47.542Z,1007.43
2017-05-19T14:27:49.382Z,1007.40
2017-05-19T14:28:51.248Z,1007.44
2017-05-19T14:29:53.444Z,1007.51
2017-05-19T14:30:55.531Z,1007.51
2017-05-19T14:31:57.357Z,1007.56
2017-05-19T14:32:59.111Z,1007.58
2017-05-19T14:34:00.995Z,1007.54
2017-05-19T14:35:04.844Z,1007.56
2017-05-19T14:36:06.948Z,1007.53
2017-05-19T14:37:09.186Z,1007.53
2017-05-19T14:38:10.941Z,1007.53
2017-05-19T14:39:12.739Z,1007.56
2017-05-19T14:40:14.517Z,1007.60
2017-05-19T14:41:16.295Z,1007.63
2017-05-19T14:42:18.159Z,1007.68
2017-05-19T14:43:20.305Z,1007.71
2017-05-19T14:44:22.119Z,1007.70
2017-05-19T14:45:24.435Z,1007.72
2017-05-19T14:46:26.248Z,1007.74
2017-05-19T14:47:28.505Z,1007.79
2017-05-19T14:48:30.431Z,1007.81
2017-05-19T14:49:32.210Z,1007.83
2017-05-19T14:50:34.049Z,1007.84
2017-05-19T14:51:35.730Z,1007.80
2017-05-19T14:52:37.537Z,1007.79
2017-05-19T14:53:39.681Z,1007.77
2017-05-19T14:54:41.735Z,1007.77
2017-05-19T14:55:43.908Z,1007.78
2017-05-19T14:56:45.718Z,1007.78
2017-05-19T14:57:47.622Z,1007.77
2017-05-19T14:58:49.847Z,1007.76
2017-05-19T14:59:51.694Z,1007.79
2017-05-19T15:00:53.547Z,1007.78
2017-05-19T15:01:55.765Z,1007.82
2017-05-19T15:02:57.665Z,1007.81
2017-05-19T15:03:59.715Z,1007.85
2017-05-19T15:05:01.830Z,1007.83
2017-05-19T15:06:03.789Z,1007.87
2017-05-19T15:07:05.599Z,1007.88
2017-05-19T15:08:07.569Z,1007.88
2017-05-19T15:09:10.017Z,1007.90
2017-05-19T15:10:11.918Z,1007.97
2017-05-19T15:11:13.718Z,1007.97
2017-05-19T15:12:15.568Z,1008.01
2017-05-19T15:13:17.422Z,1008.00
2017-05-19T15:14:19.310Z,1008.00
2017-05-19T15:15:21.118Z,1008.01
2017-05-19T15:16:22.913Z,1008.04
2017-05-19T15:17:24.771Z,1008.06
2017-05-19T15:18:26.614Z,1008.04
2017-05-19T15:19:28.746Z,1008.03
2017-05-19T15:20:30.564Z,1008.03
2017-05-19T15:21:33.076Z,1007.95
2017-05-19T15:22:34.878Z,1008.00
2017-05-19T15:23:36.839Z,1008.01
2017-05-19T15:24:38.635Z,1008.07
2017-05-19T15:25:40.472Z,1008.13
2017-05-19T15:26:42.304Z,1008.16
2017-05-19T15:27:44.252Z,1008.20
2017-05-19T15:28:46.129Z,1008.25
2017-05-19T15:29:47.970Z,1008.31
2017-05-19T15:30:50.062Z,1008.25
2017-05-19T15:31:52.030Z,1008.26
2017-05-19T15:32:53.867Z,1008.19
2017-05-19T15:33:55.751Z,1008.12
2017-05-19T15:34:57.522Z,1008.08
2017-05-19T15:35:59.349Z,1008.08
2017-05-19T15:37:01.182Z,1008.07
2017-05-19T15:38:02.945Z,1008.12
2017-05-19T15:39:04.753Z,1008.14
2017-05-19T15:40:06.627Z,1008.15
2017-05-19T15:41:08.485Z,1008.18
2017-05-19T15:42:10.276Z,1008.19
2017-05-19T15:43:12.184Z,1008.21
2017-05-19T15:44:14.061Z,1008.25
2017-05-19T15:45:16.329Z,1008.20
2017-05-19T15:46:18.154Z,1008.22
2017-05-19T15:47:20.377Z,1008.20
2017-05-19T15:48:22.435Z,1008.22
2017-05-19T15:49:24.275Z,1008.25
2017-05-19T15:50:26.104Z,1008.27
2017-05-19T15:51:27.881Z,1008.22
2017-05-19T15:52:29.723Z,1008.19
2017-05-19T15:53:31.550Z,1008.23
2017-05-19T15:54:33.724Z,1008.26
2017-05-19T15:55:35.592Z,1008.27
2017-05-19T15:56:37.390Z,1008.28
2017-05-19T15:57:39.198Z,1008.24
2017-05-19T15:58:40.997Z,1008.28
2017-05-19T15:59:42.776Z,1008.26
2017-05-19T16:00:44.663Z,1008.30
2017-05-19T16:01:46.963Z,1008.28
2017-05-19T16:02:48.788Z,1008.31
2017-05-19T16:03:50.630Z,1008.33
2017-05-19T16:04:52.483Z,1008.29
2017-05-19T16:05:54.629Z,1008.27
2017-05-19T16:06:56.368Z,1008.26
2017-05-19T16:07:58.514Z,1008.22
2017-05-19T16:09:00.666Z,1008.24
2017-05-19T16:10:02.503Z,1008.23
2017-05-19T16:11:04.666Z,1008.25
2017-05-19T16:12:06.779Z,1008.21
2017-05-19T16:13:08.629Z,1008.22
2017-05-19T16:14:10.430Z,1008.21
2017-05-19T16:15:12.288Z,1008.24
2017-05-19T16:16:14.166Z,1008.24
2017-05-19T16:17:16.061Z,1008.26
2017-05-19T16:18:17.915Z,1008.28
2017-05-19T16:19:19.998Z,1008.26
2017-05-19T16:20:22.019Z,1008.25
2017-05-19T16:21:24.066Z,1008.27
2017-05-19T16:22:25.844Z,1008.26
2017-05-19T16:23:27.625Z,1008.26
2017-05-19T16:24:29.452Z,1008.24
2017-05-19T16:25:31.404Z,1008.25
2017-05-19T16:26:33.264Z,1008.24
2017-05-19T16:27:35.420Z,1008.23
2017-05-19T16:28:37.203Z,1008.23
2017-05-19T16:29:39.105Z,1008.23
2017-05-19T16:30:40.921Z,1008.27
2017-05-19T16:31:42.878Z,1008.26
2017-05-19T16:32:44.708Z,1008.26
2017-05-19T16:33:46.586Z,1008.29
2017-05-19T16:34:48.404Z,1008.28
2017-05-19T16:35:50.521Z,1008.32
2017-05-19T16:36:52.292Z,1008.28
2017-05-19T16:37:54.195Z,1008.32
2017-05-19T16:38:56.393Z,1008.33
2017-05-19T16:39:58.258Z,1008.33
2017-05-19T16:41:00.310Z,1008.35
2017-05-19T16:42:02.131Z,1008.35
2017-05-19T16:43:03.932Z,1008.35
2017-05-19T16:44:05.827Z,1008.34
2017-05-19T16:45:07.662Z,1008.37
2017-05-19T16:46:09.586Z,1008.43
2017-05-19T16:47:11.529Z,1008.46
2017-05-19T16:48:13.648Z,1008.49
2017-05-19T16:49:15.967Z,1008.51
2017-05-19T16:50:17.689Z,1008.53
2017-05-19T16:51:19.455Z,1008.51
2017-05-19T16:52:21.336Z,1008.52
2017-05-19T16:53:23.049Z,1008.52
2017-05-19T16:54:24.834Z,1008.55
2017-05-19T16:55:26.688Z,1008.54
2017-05-19T16:56:28.620Z,1008.55
2017-05-19T16:57:30.412Z,1008.55
2017-05-19T16:58:32.512Z,1008.51
2017-05-19T16:59:34.283Z,1008.53
2017-05-19T17:00:36.423Z,1008.48
2017-05-19T17:01:38.441Z,1008.48
2017-05-19T17:02:40.250Z,1008.47
2017-05-19T17:03:42.032Z,1008.51
2017-05-19T17:04:43.692Z,1008.50
2017-05-19T17:05:45.536Z,1008.52
2017-05-19T17:06:47.401Z,1008.51
2017-05-19T17:07:49.490Z,1008.54
2017-05-19T17:08:51.198Z,1008.56
2017-05-19T17:09:53.016Z,1008.56
2017-05-19T17:10:54.866Z,1008.57
2017-05-19T17:11:56.982Z,1008.64
2017-05-19T17:12:58.939Z,1008.67
2017-05-19T17:14:00.704Z,1008.72
2017-05-19T17:15:02.515Z,1008.72
2017-05-19T17:16:04.489Z,1008.71
2017-05-19T17:17:06.693Z,1008.74
2017-05-19T17:18:08.433Z,1008.81
2017-05-19T17:19:10.543Z,1008.79
2017-05-19T17:20:12.360Z,1008.81
2017-05-19T17:21:14.183Z,1008.82
2017-05-19T17:22:16.356Z,1008.82
2017-05-19T17:23:18.107Z,1008.79
2017-05-19T17:24:19.894Z,1008.81
2017-05-19T17:25:21.725Z,1008.88
2017-05-19T17:26:23.566Z,1008.88
2017-05-19T17:27:25.468Z,1008.90
2017-05-19T17:28:27.266Z,1008.87
2017-05-19T17:29:29.073Z,1008.84
2017-05-19T17:30:30.888Z,1008.85
2017-05-19T17:31:32.937Z,1008.84
2017-05-19T17:32:34.719Z,1008.81
2017-05-19T17:33:36.549Z,1008.81
2017-05-19T17:34:38.313Z,1008.81
2017-05-19T17:35:40.133Z,1008.83
2017-05-19T17:36:42.034Z,1008.85
2017-05-19T17:37:43.891Z,1008.86
2017-05-19T17:38:45.813Z,1008.83
2017-05-19T17:39:47.756Z,1008.87
2017-05-19T17:40:49.706Z,1008.89
2017-05-19T17:41:51.725Z,1008.87
2017-05-19T17:42:53.576Z,1008.88
2017-05-19T17:43:55.831Z,1008.90
2017-05-19T17:44:57.657Z,1008.91
2017-05-19T17:45:59.467Z,1008.96